Time;durP1;ratioP1;P1;durP2;ratioP2;P2;SDS_P1;SDS_P2;PMS_P1;PMS_P2;Temp;Humidity;BMP_temperature;BMP_pressure;BME280_temperature;BME280_humidity;BME280_pressure;Samples;Min_cycle;Max_cycle;Signal;HPM_P1;HPM_P2
2022/11/05 00:10:37;;;;;;;6.90;4.47;;;;;;;6.17;100.00;100386.16;1729555;83;21284;-70
2022/11/05 00:18:37;;;;;;;7.03;4.70;;;;;;;6.21;100.00;100391.39;1729765;82;21772;-58
2022/11/05 00:25:12;;;;;;;9.07;5.33;;;;;;;6.24;100.00;100390.26;1729355;82;21180;-58
2022/11/05 00:26:20;;;;;;;9.37;5.60;;;;;;;6.16;100.00;100384.55;1729473;82;21093;-58
2022/11/05 00:28:48;;;;;;;11.10;6.50;;;;;;;6.18;100.00;100387.00;1729606;82;21091;-58
2022/11/05 00:31:15;;;;;;;13.73;7.50;;;;;;;6.18;100.00;100380.53;1729462;82;21144;-60
2022/11/05 00:33:43;;;;;;;17.10;9.37;;;;;;;6.18;100.00;100385.22;1729501;83;21460;-58
2022/11/05 00:36:10;;;;;;;12.60;7.83;;;;;;;6.19;100.00;100388.62;1729112;82;21153;-63
2022/11/05 00:38:37;;;;;;;12.40;7.53;;;;;;;6.15;100.00;100389.88;1729667;83;21469;-58
2022/11/05 00:41:05;;;;;;;10.53;6.50;;;;;;;6.09;100.00;100395.16;1729664;83;21062;-59
2022/11/05 00:46:18;;;;;;;10.27;6.33;;;;;;;6.09;100.00;100401.14;1729085;82;21582;-59
2022/11/05 00:51:31;;;;;;;8.70;5.40;;;;;;;6.04;100.00;100404.67;1729303;83;21211;-69
2022/11/05 00:53:58;;;;;;;8.33;5.03;;;;;;;5.99;100.00;100409.50;1729529;83;21226;-59
2022/11/05 00:56:25;;;;;;;8.87;4.90;;;;;;;5.98;100.00;100405.27;1729726;82;21299;-59
2022/11/05 00:58:52;;;;;;;7.97;4.70;;;;;;;5.94;100.00;100405.72;1729691;82;21690;-59
2022/11/05 01:01:20;;;;;;;7.53;4.97;;;;;;;5.91;100.00;100409.41;1729564;83;21214;-60
2022/11/05 01:03:47;;;;;;;7.63;4.93;;;;;;;5.92;100.00;100408.47;1728386;82;21070;-59
2022/11/05 01:06:15;;;;;;;8.67;5.67;;;;;;;5.93;100.00;100413.97;1729061;83;22163;-58
2022/11/05 01:08:43;;;;;;;7.73;5.00;;;;;;;5.95;100.00;100413.34;1729402;82;21798;-57
2022/11/05 01:11:31;;;;;;;8.67;5.17;;;;;;;5.94;100.00;100406.53;1729290;82;21107;-58
2022/11/05 01:13:47;;;;;;;8.17;5.27;;;;;;;5.92;100.00;100411.05;1729822;82;21277;-57
2022/11/05 01:16:15;;;;;;;7.87;4.70;;;;;;;5.97;100.00;100414.00;1729274;82;21121;-58
2022/11/05 01:18:43;;;;;;;9.13;5.93;;;;;;;6.00;100.00;100414.19;1729231;83;21102;-58
2022/11/05 01:21:12;;;;;;;8.93;5.80;;;;;;;6.00;100.00;100411.12;1729295;82;21299;-58
2022/11/05 01:23:40;;;;;;;8.80;5.47;;;;;;;6.06;100.00;100414.41;1728815;83;21113;-60
2022/11/05 01:26:08;;;;;;;9.80;5.73;;;;;;;6.05;100.00;100419.23;1729365;82;21730;-58
2022/11/05 01:28:36;;;;;;;8.10;5.50;;;;;;;6.09;100.00;100417.97;1728993;83;21218;-60
2022/11/05 01:31:03;;;;;;;11.13;6.40;;;;;;;6.14;100.00;100423.17;1729127;82;21737;-58
2022/11/05 01:33:30;;;;;;;9.83;6.80;;;;;;;6.16;100.00;100427.25;1729495;83;21771;-71
2022/11/05 01:35:57;;;;;;;9.43;6.10;;;;;;;6.20;100.00;100425.17;1728735;83;21631;-58
2022/11/05 01:38:24;;;;;;;10.63;7.10;;;;;;;6.24;100.00;100427.31;1729346;82;21577;-57
2022/11/05 01:40:52;;;;;;;9.27;7.27;;;;;;;6.27;100.00;100428.79;1729222;82;21733;-58
2022/11/05 01:43:21;;;;;;;10.70;7.67;;;;;;;6.29;100.00;100426.87;1729249;82;21308;-57
2022/11/05 01:45:55;;;;;;;9.90;7.00;;;;;;;6.39;100.00;100424.98;1728794;83;21292;-69
2022/11/05 01:48:29;;;;;;;9.47;6.53;;;;;;;6.44;100.00;100426.66;1729071;82;21652;-58
2022/11/05 01:51:06;;;;;;;9.83;6.97;;;;;;;6.51;100.00;100426.84;1729465;82;21219;-58
2022/11/05 01:53:48;;;;;;;10.27;6.83;;;;;;;6.57;100.00;100421.88;1728593;83;21321;-71
2022/11/05 01:56:23;;;;;;;10.23;7.53;;;;;;;6.62;100.00;100430.96;1727488;82;21285;-58
2022/11/05 01:59:19;;;;;;;10.13;7.03;;;;;;;6.58;100.00;100428.67;1728654;82;21852;-57
2022/11/05 02:01:46;;;;;;;9.67;6.87;;;;;;;6.59;100.00;100437.25;1728756;82;21328;-59
2022/11/05 02:04:16;;;;;;;10.23;6.90;;;;;;;6.63;100.00;100433.41;1724751;82;21296;-58
2022/11/05 02:06:45;;;;;;;9.95;7.10;;;;;;;6.65;100.00;100433.25;1718783;83;21752;-61
2022/11/05 02:09:20;;;;;;;10.73;7.27;;;;;;;6.63;100.00;100433.87;1707904;83;21666;-71
2022/11/05 02:11:50;;;;;;;9.63;6.80;;;;;;;6.65;100.00;100442.31;1718722;82;21299;-60
2022/11/05 02:14:19;;;;;;;10.83;6.43;;;;;;;6.63;100.00;100442.48;1718495;82;21242;-61
2022/11/05 02:17:14;;;;;;;11.43;7.40;;;;;;;6.61;100.00;100442.30;1718867;82;21170;-61
2022/11/05 02:19:52;;;;;;;10.83;7.70;;;;;;;6.54;100.00;100446.77;1718363;82;22078;-58
2022/11/05 02:23:02;;;;;;;11.40;7.80;;;;;;;6.54;100.00;100453.25;1714656;83;21739;-58
2022/11/05 02:25:43;;;;;;;10.43;7.70;;;;;;;6.53;100.00;100449.05;1718567;83;21207;-58
2022/11/05 02:28:40;;;;;;;10.82;7.42;;;;;;;6.49;100.00;100445.13;1718252;82;21223;-58
2022/11/05 02:31:19;;;;;;;11.00;8.20;;;;;;;6.49;100.00;100461.97;1718826;82;21077;-59
2022/11/05 02:34:12;;;;;;;10.90;7.17;;;;;;;6.43;100.00;100465.15;1718462;82;21031;-59
2022/11/05 02:37:12;;;;;;;9.97;7.47;;;;;;;6.42;100.00;100470.00;1718678;83;20986;-59
2022/11/05 02:40:02;;;;;;;11.53;7.03;;;;;;;6.36;100.00;100477.06;1718592;83;21230;-59
2022/11/05 02:42:58;;;;;;;11.47;7.60;;;;;;;6.33;100.00;100472.22;1712723;83;21222;-66
2022/11/05 02:46:01;;;;;;;10.80;8.07;;;;;;;6.36;100.00;100473.67;1718876;82;21646;-59
2022/11/05 02:48:42;;;;;;;11.63;8.10;;;;;;;6.36;100.00;100478.84;1718712;83;21779;-59
2022/11/05 02:51:20;;;;;;;11.80;8.48;;;;;;;6.38;100.00;100479.04;1719112;83;21279;-59
2022/11/05 02:53:59;;;;;;;13.13;8.13;;;;;;;6.37;100.00;100476.12;1718927;82;21210;-59
2022/11/05 02:56:36;;;;;;;12.50;8.10;;;;;;;6.32;100.00;100480.44;1718470;83;21229;-58
2022/11/05 02:59:02;;;;;;;12.83;8.60;;;;;;;6.32;100.00;100484.80;1718135;82;21245;-60
2022/11/05 03:01:31;;;;;;;11.63;8.33;;;;;;;6.33;100.00;100479.50;1718746;82;21816;-59
2022/11/05 03:04:00;;;;;;;12.17;8.53;;;;;;;6.31;100.00;100480.59;1720818;82;21112;-60
2022/11/05 03:06:52;;;;;;;13.37;8.83;;;;;;;6.35;100.00;100483.22;1729412;82;21728;-58
2022/11/05 03:09:49;;;;;;;;;;;;;;;6.42;100.00;100482.14;1731859;83;21247;-61
2022/11/05 03:12:57;;;;;;;15.50;11.00;;;;;;;6.46;100.00;100486.86;1728468;83;20456;-59
2022/11/05 03:15:57;;;;;;;18.97;12.90;;;;;;;6.54;100.00;100484.81;1728959;81;21266;-72
2022/11/05 03:18:29;;;;;;;90.50;45.13;;;;;;;6.58;100.00;100470.11;1729350;82;21388;-59
2022/11/05 03:21:13;;;;;;;26.10;16.03;;;;;;;6.65;100.00;100481.98;1729309;82;21179;-59
2022/11/05 03:23:51;;;;;;;16.50;11.73;;;;;;;6.70;100.00;100485.41;1699931;83;21067;-59
2022/11/05 03:26:34;;;;;;;15.63;11.60;;;;;;;6.67;100.00;100496.91;1698904;83;21220;-59
2022/11/05 03:29:10;;;;;;;16.00;12.17;;;;;;;6.80;100.00;100485.64;1729403;82;21369;-59
2022/11/05 03:31:37;;;;;;;15.70;11.80;;;;;;;6.80;100.00;100490.01;1699008;83;21172;-59
2022/11/05 03:34:06;;;;;;;14.90;10.87;;;;;;;6.85;100.00;100497.32;1729351;83;21187;-59
2022/11/05 03:36:40;;;;;;;14.33;11.17;;;;;;;6.88;100.00;100504.80;1729012;82;21240;-58
2022/11/05 03:39:10;;;;;;;15.90;12.20;;;;;;;6.85;100.00;100500.72;1729464;83;21845;-58
2022/11/05 03:41:39;;;;;;;15.10;11.77;;;;;;;6.85;100.00;100507.20;1729323;83;21059;-59
2022/11/05 03:44:06;;;;;;;19.37;11.50;;;;;;;6.89;100.00;100511.59;1683843;84;21099;-73
2022/11/05 03:46:44;;;;;;;17.83;11.73;;;;;;;6.93;100.00;100512.91;1698730;84;21875;-61
2022/11/05 03:49:18;;;;;;;14.87;11.90;;;;;;;6.88;100.00;100511.27;1698690;83;21701;-59
2022/11/05 03:52:12;;;;;;;14.17;10.43;;;;;;;6.85;100.00;100511.57;1729388;83;21807;-58
2022/11/05 03:54:41;;;;;;;15.53;11.33;;;;;;;6.97;100.00;100514.23;1729454;82;21185;-58
2022/11/05 03:57:24;;;;;;;13.87;11.07;;;;;;;6.94;100.00;100523.63;1729411;83;21564;-59
2022/11/05 03:59:52;;;;;;;14.80;11.17;;;;;;;6.93;100.00;100530.59;1729276;81;21285;-58
2022/11/05 04:02:21;;;;;;;14.07;11.43;;;;;;;6.97;100.00;100522.84;1729207;83;21170;-58
2022/11/05 04:04:49;;;;;;;13.57;11.33;;;;;;;6.97;100.00;100524.14;1729541;82;21298;-58
2022/11/05 04:18:19;;;;;;;18.13;14.50;;;;;;;7.09;100.00;100540.73;1729265;82;21302;-73
2022/11/05 04:26:14;;;;;;;17.97;13.63;;;;;;;7.02;100.00;100548.30;1697920;83;21252;-68
2022/11/05 04:31:27;;;;;;;22.53;15.80;;;;;;;7.03;100.00;100546.84;1729373;83;21598;-59
2022/11/05 04:33:55;;;;;;;18.17;13.77;;;;;;;7.04;100.00;100548.94;1728870;83;21138;-74
2022/11/05 04:36:22;;;;;;;18.77;14.17;;;;;;;7.05;100.00;100555.29;1729451;82;21787;-58
2022/11/05 04:38:51;;;;;;;17.90;14.27;;;;;;;7.11;100.00;100559.03;1729545;82;21212;-58
2022/11/05 04:41:18;;;;;;;20.00;14.83;;;;;;;7.11;100.00;100557.73;1729180;83;21151;-59
2022/11/05 04:43:46;;;;;;;20.23;15.67;;;;;;;7.15;100.00;100563.43;1728849;82;21194;-71
2022/11/05 04:46:14;;;;;;;20.63;15.37;;;;;;;7.14;100.00;100565.22;1729081;81;21638;-58
2022/11/05 04:48:41;;;;;;;16.60;13.40;;;;;;;7.16;100.00;100562.00;1729349;82;21117;-58
2022/11/05 04:51:09;;;;;;;19.83;14.27;;;;;;;7.18;100.00;100570.42;1729205;82;21136;-58
2022/11/05 04:53:36;;;;;;;18.97;15.20;;;;;;;7.17;100.00;100567.51;1728761;83;21081;-69
2022/11/05 04:56:18;;;;;;;18.23;14.43;;;;;;;7.14;100.00;100571.70;1729090;83;21889;-59
2022/11/05 04:58:45;;;;;;;17.27;13.33;;;;;;;7.22;100.00;100576.11;1729444;83;21092;-58
2022/11/05 05:01:14;;;;;;;17.00;12.00;;;;;;;7.21;100.00;100593.45;1729084;83;20964;-73
2022/11/05 05:03:41;;;;;;;18.40;13.13;;;;;;;7.16;100.00;100592.27;1729024;82;21663;-58
2022/11/05 05:06:09;;;;;;;17.20;13.33;;;;;;;7.16;100.00;100589.67;1720734;82;21265;-58
2022/11/05 05:08:36;;;;;;;17.07;13.63;;;;;;;7.23;100.00;100598.48;1718697;83;21209;-58
2022/11/05 05:11:05;;;;;;;17.50;12.40;;;;;;;7.22;100.00;100599.45;1718614;83;21375;-59
2022/11/05 05:13:32;;;;;;;21.20;13.63;;;;;;;7.25;100.00;100605.63;1718500;82;21016;-71
2022/11/05 05:16:09;;;;;;;16.03;11.93;;;;;;;7.19;100.00;100610.13;1718625;83;21663;-58
2022/11/05 05:18:36;;;;;;;16.27;12.33;;;;;;;7.18;100.00;100610.61;1718755;83;21781;-58
2022/11/05 09:09:10;;;;;;;32.67;18.93;;;;;;;7.45;100.00;100784.71;1856558;77;22658;-74
2022/11/05 09:11:38;;;;;;;25.67;16.77;;;;;;;7.43;100.00;100794.44;1831009;78;20978;-59
2022/11/05 09:14:05;;;;;;;26.30;16.57;;;;;;;7.51;100.00;100798.88;1831700;78;22185;-59
2022/11/05 09:16:35;;;;;;;35.20;20.30;;;;;;;7.50;100.00;100802.41;1831943;78;21165;-60
2022/11/05 09:19:03;;;;;;;50.20;29.03;;;;;;;7.43;100.00;100800.92;1831587;78;21061;-75
2022/11/05 09:21:30;;;;;;;32.67;20.57;;;;;;;7.38;100.00;100803.61;1831307;78;21118;-59
2022/11/05 09:23:59;;;;;;;28.17;16.53;;;;;;;7.38;100.00;100803.13;1831939;78;21250;-59
2022/11/05 09:26:26;;;;;;;29.37;17.07;;;;;;;7.37;100.00;100805.39;1831742;78;21151;-59
2022/11/05 09:28:55;;;;;;;25.57;15.77;;;;;;;7.53;100.00;100808.61;1831951;78;21184;-58
2022/11/05 09:31:22;;;;;;;23.43;14.57;;;;;;;7.56;100.00;100805.72;1831041;78;21203;-58
2022/11/05 09:33:49;;;;;;;26.83;14.67;;;;;;;7.55;100.00;100802.31;1831878;78;21761;-59
2022/11/05 09:36:16;;;;;;;22.50;13.83;;;;;;;7.37;100.00;100801.99;1831910;78;21194;-58
2022/11/05 09:38:44;;;;;;;23.27;14.50;;;;;;;7.34;100.00;100800.98;1831829;78;21246;-58
2022/11/05 09:41:30;;;;;;;21.60;13.63;;;;;;;7.31;100.00;100802.09;1830927;78;21051;-72
2022/11/05 09:44:24;;;;;;;23.37;13.03;;;;;;;7.24;100.00;100805.77;1831833;78;21209;-59
2022/11/05 09:47:01;;;;;;;19.63;12.27;;;;;;;7.25;100.00;100809.18;1831411;78;21304;-59
2022/11/05 09:49:48;;;;;;;18.80;12.40;;;;;;;7.25;100.00;100813.88;1831587;78;21149;-60
2022/11/05 09:52:23;;;;;;;19.00;12.10;;;;;;;7.27;100.00;100807.23;1831367;78;21267;-60
2022/11/05 09:54:50;;;;;;;17.93;11.17;;;;;;;7.22;100.00;100810.77;1830433;78;21636;-61
2022/11/05 09:57:44;;;;;;;18.90;11.30;;;;;;;7.19;100.00;100818.83;1797388;78;21103;-61
2022/11/05 10:00:15;;;;;;;17.33;10.67;;;;;;;6.93;100.00;100816.97;1822554;78;21300;-59
2022/11/05 10:03:01;;;;;;;17.47;10.27;;;;;;;7.14;100.00;100827.06;1831953;78;21224;-60
2022/11/05 10:05:29;;;;;;;18.57;10.40;;;;;;;6.93;100.00;100823.45;1830869;78;21265;-59
2022/11/05 10:08:06;;;;;;;18.57;10.90;;;;;;;6.94;100.00;100822.97;1831671;78;21275;-58
2022/11/05 10:10:55;;;;;;;17.17;11.03;;;;;;;6.78;100.00;100814.50;1831200;78;21753;-59
2022/11/05 10:13:46;;;;;;;16.27;9.80;;;;;;;6.70;100.00;100821.70;1830912;78;21084;-59
2022/11/05 10:16:34;;;;;;;17.20;10.20;;;;;;;6.67;100.00;100827.68;1796165;79;21569;-58
2022/11/05 10:19:10;;;;;;;19.27;10.83;;;;;;;6.56;100.00;100832.55;1764082;81;21317;-59
2022/11/05 10:21:39;;;;;;;20.70;11.80;;;;;;;6.49;100.00;100837.97;1764010;81;21302;-60
2022/11/05 10:24:13;;;;;;;18.73;10.80;;;;;;;6.45;100.00;100836.63;1797221;79;21156;-61
2022/11/05 10:26:42;;;;;;;20.97;12.23;;;;;;;6.53;100.00;100834.13;1765742;81;21328;-59
2022/11/05 10:29:12;;;;;;;19.77;11.87;;;;;;;6.85;100.00;100838.06;1797238;79;21288;-65
2022/11/05 10:31:39;;;;;;;20.70;13.63;;;;;;;6.58;100.00;100837.91;1797688;79;21261;-59
2022/11/05 10:34:06;;;;;;;21.13;12.80;;;;;;;6.65;100.00;100842.53;1796708;79;21138;-60
2022/11/05 10:36:35;;;;;;;24.60;13.57;;;;;;;6.56;100.00;100842.92;1797090;79;21560;-60
2022/11/05 10:39:12;;;;;;;24.77;14.90;;;;;;;6.49;100.00;100841.85;1797542;79;21050;-59
2022/11/05 10:42:20;;;;;;;23.13;13.90;;;;;;;6.48;100.00;100844.92;1796630;79;21353;-73
2022/11/05 10:44:55;;;;;;;25.20;14.90;;;;;;;6.47;100.00;100847.64;1797234;79;21174;-58
2022/11/05 10:47:53;;;;;;;34.77;19.20;;;;;;;6.46;100.00;100844.23;1796999;79;21747;-60
2022/11/05 10:50:23;;;;;;;26.40;15.70;;;;;;;6.54;100.00;100846.11;1797083;79;21102;-61
2022/11/05 10:52:54;;;;;;;;;;;;;;;6.56;100.00;100857.98;1766121;81;20935;-74
2022/11/05 10:55:29;;;;;;;24.20;15.90;;;;;;;6.36;100.00;100856.39;1763758;81;20904;-60
2022/11/05 10:58:16;;;;;;;23.53;14.60;;;;;;;6.39;100.00;100857.89;1797379;79;21867;-58
2022/11/05 11:00:52;;;;;;;23.63;15.30;;;;;;;6.53;100.00;100863.44;1765382;81;21781;-59
2022/11/05 11:03:36;;;;;;;25.20;15.03;;;;;;;6.54;100.00;100868.95;1797406;79;21127;-59
2022/11/05 11:06:14;;;;;;;24.87;15.60;;;;;;;6.85;100.00;100867.87;1765971;81;21184;-75
2022/11/05 11:08:43;;;;;;;25.70;16.20;;;;;;;6.50;100.00;100871.48;1729226;82;21180;-59
2022/11/05 11:11:12;;;;;;;24.90;15.07;;;;;;;6.49;100.00;100881.52;1733993;81;21180;-59
2022/11/05 11:13:52;;;;;;;28.07;17.20;;;;;;;6.51;100.00;100882.17;1733769;82;21497;-60
2022/11/05 11:16:23;;;;;;;28.40;16.37;;;;;;;6.48;100.00;100885.06;1762840;81;21944;-59
2022/11/05 11:18:59;;;;;;;26.93;16.17;;;;;;;6.47;100.00;100887.30;1765760;81;21537;-59
2022/11/05 11:21:28;;;;;;;32.50;17.13;;;;;;;6.43;100.00;100891.61;1733830;82;21012;-60
2022/11/05 11:24:03;;;;;;;31.00;18.70;;;;;;;6.48;100.00;100888.95;1733486;82;21136;-59
2022/11/05 11:26:32;;;;;;;30.20;17.93;;;;;;;6.49;100.00;100887.17;1765965;81;21231;-59
2022/11/05 11:29:19;;;;;;;34.90;20.02;;;;;;;6.57;100.00;100891.17;1765671;81;21229;-59
2022/11/05 11:31:47;;;;;;;31.73;19.00;;;;;;;6.39;100.00;100898.03;1764578;81;21046;-57
2022/11/05 11:34:33;;;;;;;30.87;19.93;;;;;;;6.43;100.00;100892.91;1735106;82;21241;-58
2022/11/05 11:37:19;;;;;;;34.43;19.57;;;;;;;6.36;100.00;100894.42;1765074;81;21315;-72
2022/11/05 11:39:49;;;;;;;32.20;18.77;;;;;;;6.31;100.00;100897.44;1765416;81;21808;-57
2022/11/05 11:42:32;;;;;;;31.27;19.03;;;;;;;6.20;100.00;100896.29;1735227;82;21268;-57
2022/11/05 11:45:04;;;;;;;30.70;18.63;;;;;;;6.12;100.00;100895.69;1732622;82;21926;-59
2022/11/05 11:47:31;;;;;;;32.33;19.30;;;;;;;5.86;100.00;100907.05;1759863;81;21270;-58
2022/11/05 11:50:01;;;;;;;34.17;19.80;;;;;;;6.01;100.00;100904.41;1735376;82;21179;-58
2022/11/05 11:52:34;;;;;;;35.87;21.53;;;;;;;5.91;100.00;100911.35;1733165;82;21135;-57
2022/11/05 11:55:15;;;;;;;37.40;19.43;;;;;;;5.93;100.00;100913.34;1733551;82;21087;-58
2022/11/05 11:57:51;;;;;;;31.65;18.30;;;;;;;5.95;100.00;100914.52;1766081;81;28367;-58
2022/11/05 12:00:20;;;;;;;32.55;17.40;;;;;;;6.00;100.00;100913.14;1733487;82;21046;-71
2022/11/05 12:03:13;;;;;;;30.43;17.67;;;;;;;5.95;100.00;100917.11;1735097;81;21282;-58
2022/11/05 12:05:48;;;;;;;28.97;17.77;;;;;;;5.90;100.00;100912.28;1735123;81;21041;-58
2022/11/05 12:08:40;;;;;;;29.65;17.12;;;;;;;6.06;100.00;100912.60;1732834;82;21286;-58
2022/11/05 12:11:19;;;;;;;26.73;14.70;;;;;;;5.95;100.00;100920.50;1762789;81;20947;-61
2022/11/05 12:14:21;;;;;;;23.53;15.30;;;;;;;5.77;100.00;100921.63;1761999;81;21069;-61
2022/11/05 12:17:20;;;;;;;23.07;14.53;;;;;;;5.79;100.00;100921.47;1705087;81;21171;-71
2022/11/05 12:20:14;;;;;;;24.17;15.30;;;;;;;5.65;100.00;100921.41;1707596;81;20856;-58
2022/11/05 12:23:19;;;;;;;21.83;14.17;;;;;;;5.72;100.00;100928.98;1761347;81;21475;-57
2022/11/05 12:26:16;;;;;;;41.90;26.23;;;;;;;6.10;100.00;100927.38;1730012;82;21618;-59
2022/11/05 12:29:04;;;;;;;25.83;15.60;;;;;;;6.13;100.00;100921.91;1762669;81;21579;-58
2022/11/05 12:31:48;;;;;;;24.47;14.58;;;;;;;5.96;100.00;100931.67;1729068;81;21702;-58
2022/11/05 12:34:46;;;;;;;28.35;16.80;;;;;;;5.93;100.00;100928.87;1732363;82;21029;-58
2022/11/05 12:37:37;;;;;;;18.70;12.43;;;;;;;6.09;100.00;100925.24;1731094;82;20990;-57
2022/11/05 12:40:34;;;;;;;22.30;13.30;;;;;;;6.05;100.00;100925.18;1729721;82;20964;-58
2022/11/05 12:43:24;;;;;;;23.38;13.90;;;;;;;6.17;100.00;100927.63;1732274;82;21364;-58
2022/11/05 12:46:29;;;;;;;24.63;14.30;;;;;;;6.16;100.00;100926.00;1762516;81;21338;-60
2022/11/05 12:49:07;;;;;;;21.00;12.37;;;;;;;6.01;100.00;100932.88;1761743;81;22243;-58
2022/11/05 12:52:00;;;;;;;22.97;13.03;;;;;;;6.03;100.00;100936.16;1762133;81;21072;-58
2022/11/05 12:54:41;;;;;;;23.00;13.73;;;;;;;6.01;100.00;100945.81;1731936;82;21352;-58
2022/11/05 12:57:11;;;;;;;22.73;13.93;;;;;;;5.93;100.00;100944.39;1729456;82;21180;-58
2022/11/05 12:59:49;;;;;;;22.60;13.72;;;;;;;5.82;100.00;100954.84;1735097;81;21221;-58
2022/11/05 13:02:31;;;;;;;24.50;14.10;;;;;;;5.96;100.00;100951.89;1730329;82;21007;-58
2022/11/05 13:05:15;;;;;;;21.52;13.43;;;;;;;5.97;100.00;100961.28;1762823;81;25380;-57
2022/11/05 13:07:59;;;;;;;24.55;15.28;;;;;;;5.89;100.00;100959.82;1761661;81;20974;-58
2022/11/05 13:10:54;;;;;;;25.30;14.43;;;;;;;5.74;100.00;100962.46;1728330;82;21013;-57
2022/11/05 13:13:38;;;;;;;29.02;17.12;;;;;;;5.89;100.00;100954.64;1765657;81;21535;-58
2022/11/05 13:16:28;;;;;;;29.35;17.37;;;;;;;5.68;100.00;100965.09;1765475;81;20982;-59
2022/11/05 13:19:32;;;;;;;28.23;16.85;;;;;;;5.85;100.00;100964.45;1765720;81;21235;-58
2022/11/05 13:22:08;;;;;;;29.00;17.35;;;;;;;5.89;100.00;100970.17;1710387;82;21365;-59
2022/11/05 13:24:41;;;;;;;28.83;16.73;;;;;;;6.01;100.00;100975.58;1733466;82;20942;-61
2022/11/05 13:27:47;;;;;;;31.57;18.20;;;;;;;5.85;100.00;100982.56;1765096;81;21256;-59
2022/11/05 13:30:21;;;;;;;30.02;18.77;;;;;;;5.70;100.00;100994.24;1734902;82;20982;-59
2022/11/05 13:33:15;;;;;;;31.97;18.07;;;;;;;5.73;100.00;100999.64;1765473;81;20934;-63
2022/11/05 13:35:47;;;;;;;34.45;18.35;;;;;;;5.40;100.00;100995.11;1764898;81;21068;-59
2022/11/05 13:41:32;;;;;;;27.45;16.77;;;;;;;5.41;100.00;101012.25;1738533;81;21285;-58
2022/11/05 13:44:23;;;;;;;27.98;15.80;;;;;;;5.44;100.00;101008.12;1733065;82;21137;-71
2022/11/05 13:47:22;;;;;;;27.45;16.50;;;;;;;5.19;100.00;101000.36;1733188;82;20868;-58
2022/11/05 13:50:30;;;;;;;29.90;17.10;;;;;;;5.06;100.00;101015.24;1764958;81;21505;-59
2022/11/05 13:53:39;;;;;;;32.80;19.00;;;;;;;5.04;100.00;101005.05;1766104;81;21065;-58
2022/11/05 13:56:57;;;;;;;33.18;19.48;;;;;;;4.87;100.00;101018.54;1778010;79;21146;-75
2022/11/05 13:59:48;;;;;;;32.13;17.98;;;;;;;4.88;100.00;101018.40;1797144;79;20958;-73
2022/11/05 14:02:20;;;;;;;33.25;19.48;;;;;;;5.04;100.00;101015.38;1763963;81;21061;-59
2022/11/05 14:04:54;;;;;;;;;;;;;;;5.16;100.00;101007.55;1795364;79;20926;-59
2022/11/05 14:07:27;;;;;;;29.12;17.62;;;;;;;5.05;100.00;101006.67;1796574;79;20068;-60
2022/11/05 14:10:21;;;;;;;29.98;17.85;;;;;;;4.99;100.00;101010.23;1762044;81;22009;-59
2022/11/05 14:12:50;;;;;;;28.62;17.25;;;;;;;5.01;100.00;101010.47;1793463;80;20976;-61
2022/11/05 14:15:24;;;;;;;29.00;17.60;;;;;;;5.01;100.00;101007.88;1794223;80;21100;-59
2022/11/05 14:18:04;;;;;;;28.57;16.90;;;;;;;5.04;100.00;101010.22;1762508;81;21041;-59
2022/11/05 14:20:37;;;;;;;29.75;18.07;;;;;;;5.16;100.00;101015.30;1760504;81;21019;-59
2022/11/05 14:23:22;;;;;;;32.83;20.05;;;;;;;5.02;100.00;101022.91;1794033;80;21143;-59
2022/11/05 17:05:57;;;;;;;24.20;16.83;;;;;;;4.01;100.00;101189.30;1878267;75;22695;-60
2022/11/05 17:08:25;;;;;;;25.70;15.38;;;;;;;4.06;100.00;101200.11;1838906;76;20952;-59
2022/11/05 17:10:56;;;;;;;22.35;14.65;;;;;;;4.06;100.00;101195.42;1834249;76;20931;-59
2022/11/05 17:13:24;;;;;;;23.45;15.28;;;;;;;4.08;100.00;101196.92;1840475;76;21045;-58
2022/11/05 17:15:51;;;;;;;21.77;13.25;;;;;;;4.12;100.00;101198.33;1846327;76;21350;-59
2022/11/05 17:18:19;;;;;;;24.27;15.25;;;;;;;4.00;100.00;101201.04;1841808;76;21015;-58
2022/11/05 17:20:51;;;;;;;23.50;14.35;;;;;;;3.95;100.00;101196.23;1846072;76;20867;-59
2022/11/05 17:23:20;;;;;;;26.50;14.58;;;;;;;3.94;100.00;101197.19;1832729;76;21310;-58
2022/11/05 17:25:50;;;;;;;21.90;14.35;;;;;;;3.85;100.00;101200.44;1828008;77;21483;-58
2022/11/05 17:28:18;;;;;;;24.15;15.10;;;;;;;3.87;100.00;101208.42;1828227;77;21519;-59
2022/11/05 17:30:47;;;;;;;24.35;15.65;;;;;;;3.90;100.00;101209.93;1846328;76;21293;-59
2022/11/05 17:33:15;;;;;;;23.60;14.95;;;;;;;3.93;100.00;101217.92;1836268;76;21005;-67
2022/11/05 17:35:42;;;;;;;25.10;14.28;;;;;;;3.96;100.00;101228.01;1839559;76;21251;-59
2022/11/05 17:38:09;;;;;;;21.75;14.00;;;;;;;3.98;100.00;101224.38;1835870;76;20946;-62
2022/11/05 17:40:37;;;;;;;22.67;14.47;;;;;;;4.07;100.00;101223.67;1830690;76;20977;-58
2022/11/05 17:43:04;;;;;;;26.12;13.35;;;;;;;4.07;100.00;101223.67;1842765;76;20902;-62
2022/11/05 17:45:31;;;;;;;24.82;15.20;;;;;;;4.02;100.00;101225.79;1844042;76;21022;-59
2022/11/05 17:48:02;;;;;;;22.73;13.78;;;;;;;3.94;100.00;101232.01;1842114;76;21173;-58
2022/11/05 17:50:29;;;;;;;23.67;14.05;;;;;;;3.88;100.00;101233.75;1847215;76;20967;-59
2022/11/05 17:52:56;;;;;;;22.02;12.75;;;;;;;3.91;100.00;101234.81;1849342;77;20971;-59
2022/11/05 17:55:24;;;;;;;20.57;12.05;;;;;;;3.90;100.00;101235.72;1832678;76;21473;-59
2022/11/05 17:57:51;;;;;;;19.40;10.80;;;;;;;3.86;100.00;101245.92;1835817;76;21555;-62
2022/11/05 18:00:21;;;;;;;20.25;11.90;;;;;;;3.82;100.00;101241.46;1837944;76;21523;-65
2022/11/05 18:02:49;;;;;;;20.68;12.35;;;;;;;3.91;100.00;101250.28;1831951;77;20981;-78
2022/11/05 18:05:17;;;;;;;20.70;13.08;;;;;;;3.97;100.00;101255.44;1845656;76;20872;-59
2022/11/05 18:07:45;;;;;;;19.73;11.10;;;;;;;3.95;100.00;101258.62;1837841;76;20936;-58
2022/11/05 18:10:13;;;;;;;19.60;10.95;;;;;;;3.83;100.00;101266.81;1836304;76;21096;-59
2022/11/05 18:12:40;;;;;;;18.35;10.03;;;;;;;3.81;100.00;101264.33;1849053;76;21923;-59
2022/11/05 18:15:08;;;;;;;21.55;10.98;;;;;;;3.83;100.00;101262.94;1833022;76;20931;-60
2022/11/05 18:17:36;;;;;;;17.45;10.82;;;;;;;3.68;100.00;101260.21;1833701;76;21057;-59
2022/11/05 18:20:07;;;;;;;19.48;10.65;;;;;;;3.70;100.00;101263.02;1827473;76;20959;-59
2022/11/05 18:22:37;;;;;;;20.82;11.60;;;;;;;3.64;100.00;101265.59;1835279;76;20926;-58
2022/11/05 18:25:06;;;;;;;19.10;11.65;;;;;;;3.77;100.00;101264.67;1840163;76;21296;-60
2022/11/05 18:27:34;;;;;;;18.87;11.18;;;;;;;3.67;100.00;101272.26;1845671;76;20976;-59
2022/11/05 18:30:03;;;;;;;17.15;11.30;;;;;;;3.61;100.00;101270.97;1842387;76;20991;-61
2022/11/05 18:32:30;;;;;;;19.45;10.82;;;;;;;3.83;100.00;101273.26;1832381;76;21010;-59
2022/11/05 18:34:57;;;;;;;22.15;13.75;;;;;;;3.86;100.00;101274.30;1834344;76;20919;-61
2022/11/05 18:37:26;;;;;;;43.05;25.57;;;;;;;3.83;100.00;101279.23;1843716;77;20985;-60
2022/11/05 18:39:54;;;;;;;28.07;17.05;;;;;;;3.76;100.00;101279.33;1833589;76;20985;-59
2022/11/05 18:42:22;;;;;;;27.80;15.90;;;;;;;3.72;100.00;101283.55;1835092;76;21024;-59
2022/11/05 18:44:50;;;;;;;23.92;13.70;;;;;;;3.72;100.00;101286.94;1845100;76;20914;-60
2022/11/05 18:47:17;;;;;;;19.17;12.13;;;;;;;3.74;100.00;101281.66;1849299;76;20985;-61
2022/11/05 18:49:45;;;;;;;21.97;13.35;;;;;;;3.77;100.00;101288.70;1848916;77;22078;-58
2022/11/05 18:52:13;;;;;;;21.73;13.30;;;;;;;3.83;100.00;101283.10;1836586;76;20828;-58
2022/11/05 18:54:41;;;;;;;20.90;12.65;;;;;;;3.68;100.00;101291.97;1831993;76;20953;-58
2022/11/05 18:57:09;;;;;;;22.82;13.05;;;;;;;3.59;100.00;101291.34;1834546;76;21504;-63
2022/11/05 18:59:37;;;;;;;23.65;13.35;;;;;;;3.60;100.00;101295.59;1840275;76;21821;-58
2022/11/05 19:02:05;;;;;;;21.40;12.95;;;;;;;3.65;100.00;101292.19;1836914;76;21118;-58
2022/11/05 19:04:37;;;;;;;23.22;14.65;;;;;;;3.71;100.00;101294.77;1830512;76;20982;-58